sensor_id;sensor_type;location;lat;lon;timestamp;P1;durP1;ratioP1;P2;durP2;ratioP2
2544;SDS011;36212;48.838;9.142;2023-08-24T00:00:55;9.10;;;8.40;;
2544;SDS011;36212;48.838;9.142;2023-08-24T00:03:27;8.63;;;8.03;;
2544;SDS011;36212;48.838;9.142;2023-08-24T00:06:00;8.13;;;7.63;;
2544;SDS011;36212;48.838;9.142;2023-08-24T00:08:32;9.20;;;8.50;;
2544;SDS011;36212;48.838;9.142;2023-08-24T00:11:04;9.87;;;8.97;;
2544;SDS011;36212;48.838;9.142;2023-08-24T00:13:38;10.23;;;9.47;;
2544;SDS011;36212;48.838;9.142;2023-08-24T00:16:11;10.17;;;9.43;;
2544;SDS011;36212;48.838;9.142;2023-08-24T00:18:45;10.47;;;9.77;;
2544;SDS011;36212;48.838;9.142;2023-08-24T00:21:18;10.47;;;9.00;;
2544;SDS011;36212;48.838;9.142;2023-08-24T00:23:54;9.00;;;8.33;;
2544;SDS011;36212;48.838;9.142;2023-08-24T00:26:27;9.20;;;8.60;;
2544;SDS011;36212;48.838;9.142;2023-08-24T00:28:59;9.77;;;8.70;;
2544;SDS011;36212;48.838;9.142;2023-08-24T00:31:32;9.50;;;8.60;;
2544;SDS011;36212;48.838;9.142;2023-08-24T00:34:04;9.40;;;8.70;;
2544;SDS011;36212;48.838;9.142;2023-08-24T00:36:36;10.30;;;9.40;;
2544;SDS011;36212;48.838;9.142;2023-08-24T00:39:09;10.67;;;9.80;;
2544;SDS011;36212;48.838;9.142;2023-08-24T00:41:42;10.43;;;9.73;;
2544;SDS011;36212;48.838;9.142;2023-08-24T00:44:15;9.90;;;9.10;;
2544;SDS011;36212;48.838;9.142;2023-08-24T00:46:47;9.67;;;8.87;;
2544;SDS011;36212;48.838;9.142;2023-08-24T00:49:20;10.10;;;9.20;;
2544;SDS011;36212;48.838;9.142;2023-08-24T00:51:53;9.57;;;8.77;;
2544;SDS011;36212;48.838;9.142;2023-08-24T00:54:25;10.40;;;9.03;;
2544;SDS011;36212;48.838;9.142;2023-08-24T00:56:57;9.60;;;8.67;;
2544;SDS011;36212;48.838;9.142;2023-08-24T00:59:30;10.07;;;9.27;;
2544;SDS011;36212;48.838;9.142;2023-08-24T01:02:04;9.93;;;9.03;;
2544;SDS011;36212;48.838;9.142;2023-08-24T01:04:36;9.67;;;8.73;;
2544;SDS011;36212;48.838;9.142;2023-08-24T01:07:13;9.97;;;9.17;;
2544;SDS011;36212;48.838;9.142;2023-08-24T01:09:47;9.53;;;8.77;;
2544;SDS011;36212;48.838;9.142;2023-08-24T01:18:20;10.00;;;9.30;;
2544;SDS011;36212;48.838;9.142;2023-08-24T01:20:58;9.30;;;8.60;;
2544;SDS011;36212;48.838;9.142;2023-08-24T01:26:50;9.33;;;8.73;;
2544;SDS011;36212;48.838;9.142;2023-08-24T01:29:25;10.80;;;9.90;;
2544;SDS011;36212;48.838;9.142;2023-08-24T01:31:59;11.47;;;10.57;;
2544;SDS011;36212;48.838;9.142;2023-08-24T01:34:31;10.70;;;9.60;;
2544;SDS011;36212;48.838;9.142;2023-08-24T01:37:03;9.80;;;9.20;;
2544;SDS011;36212;48.838;9.142;2023-08-24T01:42:57;9.53;;;8.83;;
2544;SDS011;36212;48.838;9.142;2023-08-24T01:45:37;9.97;;;9.27;;
2544;SDS011;36212;48.838;9.142;2023-08-24T01:48:13;9.77;;;8.97;;
2544;SDS011;36212;48.838;9.142;2023-08-24T01:50:46;9.97;;;8.97;;
2544;SDS011;36212;48.838;9.142;2023-08-24T01:53:19;10.50;;;9.57;;
2544;SDS011;36212;48.838;9.142;2023-08-24T01:55:52;10.00;;;9.20;;
2544;SDS011;36212;48.838;9.142;2023-08-24T01:58:24;10.43;;;9.70;;
2544;SDS011;36212;48.838;9.142;2023-08-24T02:00:57;10.70;;;10.00;;
2544;SDS011;36212;48.838;9.142;2023-08-24T02:03:29;11.07;;;10.17;;
2544;SDS011;36212;48.838;9.142;2023-08-24T02:06:01;10.80;;;9.97;;
2544;SDS011;36212;48.838;9.142;2023-08-24T02:08:35;11.33;;;9.73;;
2544;SDS011;36212;48.838;9.142;2023-08-24T02:11:07;9.80;;;9.10;;
2544;SDS011;36212;48.838;9.142;2023-08-24T02:13:40;10.97;;;10.17;;
2544;SDS011;36212;48.838;9.142;2023-08-24T02:16:12;11.30;;;10.50;;
2544;SDS011;36212;48.838;9.142;2023-08-24T02:18:44;10.77;;;10.03;;
2544;SDS011;36212;48.838;9.142;2023-08-24T02:21:16;10.97;;;10.10;;
2544;SDS011;36212;48.838;9.142;2023-08-24T02:23:48;11.30;;;10.50;;
2544;SDS011;36212;48.838;9.142;2023-08-24T02:26:21;11.30;;;10.40;;
2544;SDS011;36212;48.838;9.142;2023-08-24T02:28:53;11.60;;;10.53;;
2544;SDS011;36212;48.838;9.142;2023-08-24T02:31:25;11.30;;;10.50;;
2544;SDS011;36212;48.838;9.142;2023-08-24T02:33:57;11.30;;;10.50;;
2544;SDS011;36212;48.838;9.142;2023-08-24T02:36:29;11.73;;;10.93;;
2544;SDS011;36212;48.838;9.142;2023-08-24T02:39:08;9.83;;;9.23;;
2544;SDS011;36212;48.838;9.142;2023-08-24T02:41:40;11.30;;;10.47;;
2544;SDS011;36212;48.838;9.142;2023-08-24T02:44:12;11.00;;;10.20;;
2544;SDS011;36212;48.838;9.142;2023-08-24T02:46:44;11.83;;;11.03;;
2544;SDS011;36212;48.838;9.142;2023-08-24T02:49:18;11.70;;;10.80;;
2544;SDS011;36212;48.838;9.142;2023-08-24T02:51:50;11.40;;;10.60;;
2544;SDS011;36212;48.838;9.142;2023-08-24T02:54:23;11.90;;;10.80;;
2544;SDS011;36212;48.838;9.142;2023-08-24T02:56:55;10.93;;;10.23;;
2544;SDS011;36212;48.838;9.142;2023-08-24T02:59:27;12.13;;;11.27;;
2544;SDS011;36212;48.838;9.142;2023-08-24T03:01:59;11.43;;;10.53;;
2544;SDS011;36212;48.838;9.142;2023-08-24T03:04:31;12.13;;;11.23;;
2544;SDS011;36212;48.838;9.142;2023-08-24T03:07:03;10.50;;;9.80;;
2544;SDS011;36212;48.838;9.142;2023-08-24T03:09:40;11.97;;;10.97;;
2544;SDS011;36212;48.838;9.142;2023-08-24T03:12:12;11.67;;;10.77;;
2544;SDS011;36212;48.838;9.142;2023-08-24T03:14:45;13.33;;;11.00;;
2544;SDS011;36212;48.838;9.142;2023-08-24T03:17:21;11.50;;;10.70;;
2544;SDS011;36212;48.838;9.142;2023-08-24T03:19:53;12.00;;;11.20;;
2544;SDS011;36212;48.838;9.142;2023-08-24T03:22:25;11.50;;;10.70;;
2544;SDS011;36212;48.838;9.142;2023-08-24T03:24:57;12.63;;;11.73;;
2544;SDS011;36212;48.838;9.142;2023-08-24T03:27:30;12.33;;;11.33;;
2544;SDS011;36212;48.838;9.142;2023-08-24T03:30:02;11.37;;;10.67;;
2544;SDS011;36212;48.838;9.142;2023-08-24T03:32:36;12.73;;;11.73;;
2544;SDS011;36212;48.838;9.142;2023-08-24T03:35:10;12.10;;;11.20;;
2544;SDS011;36212;48.838;9.142;2023-08-24T03:37:42;13.17;;;11.37;;
2544;SDS011;36212;48.838;9.142;2023-08-24T03:40:14;12.23;;;11.07;;
2544;SDS011;36212;48.838;9.142;2023-08-24T03:42:47;12.20;;;11.20;;
2544;SDS011;36212;48.838;9.142;2023-08-24T03:45:20;11.60;;;10.90;;
2544;SDS011;36212;48.838;9.142;2023-08-24T03:47:53;12.07;;;11.17;;
2544;SDS011;36212;48.838;9.142;2023-08-24T03:50:26;12.93;;;11.50;;
2544;SDS011;36212;48.838;9.142;2023-08-24T03:52:58;12.13;;;11.03;;
2544;SDS011;36212;48.838;9.142;2023-08-24T03:55:30;11.87;;;11.07;;
2544;SDS011;36212;48.838;9.142;2023-08-24T03:58:04;11.90;;;11.10;;
2544;SDS011;36212;48.838;9.142;2023-08-24T04:00:37;11.07;;;10.33;;
2544;SDS011;36212;48.838;9.142;2023-08-24T04:03:09;11.23;;;10.43;;
2544;SDS011;36212;48.838;9.142;2023-08-24T04:05:42;11.57;;;10.47;;
2544;SDS011;36212;48.838;9.142;2023-08-24T04:08:14;12.60;;;11.30;;
2544;SDS011;36212;48.838;9.142;2023-08-24T04:10:48;12.87;;;11.77;;
2544;SDS011;36212;48.838;9.142;2023-08-24T04:13:20;12.23;;;11.33;;
2544;SDS011;36212;48.838;9.142;2023-08-24T04:15:52;13.00;;;12.10;;
2544;SDS011;36212;48.838;9.142;2023-08-24T04:18:25;12.43;;;11.53;;
2544;SDS011;36212;48.838;9.142;2023-08-24T04:20:57;11.93;;;11.03;;
2544;SDS011;36212;48.838;9.142;2023-08-24T04:23:29;15.10;;;12.00;;
2544;SDS011;36212;48.838;9.142;2023-08-24T04:26:01;14.00;;;12.90;;
2544;SDS011;36212;48.838;9.142;2023-08-24T04:28:37;13.13;;;12.13;;
2544;SDS011;36212;48.838;9.142;2023-08-24T04:31:09;12.50;;;11.57;;
2544;SDS011;36212;48.838;9.142;2023-08-24T04:33:41;12.83;;;11.60;;
2544;SDS011;36212;48.838;9.142;2023-08-24T04:36:14;11.70;;;10.80;;
2544;SDS011;36212;48.838;9.142;2023-08-24T04:38:46;12.53;;;11.53;;
2544;SDS011;36212;48.838;9.142;2023-08-24T04:41:20;12.63;;;11.57;;
2544;SDS011;36212;48.838;9.142;2023-08-24T04:43:52;12.20;;;11.20;;
2544;SDS011;36212;48.838;9.142;2023-08-24T04:46:25;12.00;;;11.00;;
2544;SDS011;36212;48.838;9.142;2023-08-24T04:48:58;11.90;;;11.00;;
2544;SDS011;36212;48.838;9.142;2023-08-24T04:51:30;11.97;;;11.17;;
2544;SDS011;36212;48.838;9.142;2023-08-24T04:54:02;12.20;;;11.30;;
2544;SDS011;36212;48.838;9.142;2023-08-24T04:56:34;12.77;;;11.87;;
2544;SDS011;36212;48.838;9.142;2023-08-24T04:59:07;12.83;;;11.73;;
2544;SDS011;36212;48.838;9.142;2023-08-24T05:01:40;13.10;;;12.17;;
2544;SDS011;36212;48.838;9.142;2023-08-24T05:04:13;12.90;;;11.90;;
2544;SDS011;36212;48.838;9.142;2023-08-24T05:06:45;11.90;;;11.10;;
2544;SDS011;36212;48.838;9.142;2023-08-24T05:09:17;12.50;;;11.53;;
2544;SDS011;36212;48.838;9.142;2023-08-24T05:11:49;12.07;;;11.10;;
2544;SDS011;36212;48.838;9.142;2023-08-24T05:14:21;11.60;;;10.90;;
2544;SDS011;36212;48.838;9.142;2023-08-24T05:16:53;12.07;;;11.10;;
2544;SDS011;36212;48.838;9.142;2023-08-24T05:19:26;13.43;;;12.43;;
2544;SDS011;36212;48.838;9.142;2023-08-24T05:22:00;11.93;;;10.90;;
2544;SDS011;36212;48.838;9.142;2023-08-24T05:24:32;14.37;;;13.27;;
2544;SDS011;36212;48.838;9.142;2023-08-24T05:27:04;13.53;;;12.40;;
2544;SDS011;36212;48.838;9.142;2023-08-24T05:29:37;12.90;;;11.90;;
2544;SDS011;36212;48.838;9.142;2023-08-24T05:32:09;13.13;;;12.10;;
2544;SDS011;36212;48.838;9.142;2023-08-24T05:34:41;13.00;;;11.80;;
2544;SDS011;36212;48.838;9.142;2023-08-24T05:37:15;14.07;;;12.67;;
2544;SDS011;36212;48.838;9.142;2023-08-24T05:39:47;18.17;;;13.40;;
2544;SDS011;36212;48.838;9.142;2023-08-24T05:42:20;13.10;;;12.10;;
2544;SDS011;36212;48.838;9.142;2023-08-24T05:44:52;13.87;;;12.40;;
2544;SDS011;36212;48.838;9.142;2023-08-24T05:47:24;17.20;;;11.67;;
2544;SDS011;36212;48.838;9.142;2023-08-24T05:49:57;13.13;;;11.93;;
2544;SDS011;36212;48.838;9.142;2023-08-24T05:52:29;12.77;;;11.50;;
2544;SDS011;36212;48.838;9.142;2023-08-24T05:55:01;11.90;;;10.90;;
2544;SDS011;36212;48.838;9.142;2023-08-24T05:57:34;12.90;;;11.90;;
2544;SDS011;36212;48.838;9.142;2023-08-24T06:00:06;12.53;;;11.27;;
2544;SDS011;36212;48.838;9.142;2023-08-24T06:02:42;11.70;;;10.90;;
2544;SDS011;36212;48.838;9.142;2023-08-24T06:05:14;11.70;;;10.70;;
2544;SDS011;36212;48.838;9.142;2023-08-24T06:07:49;13.47;;;11.57;;
2544;SDS011;36212;48.838;9.142;2023-08-24T06:10:22;11.77;;;10.70;;
2544;SDS011;36212;48.838;9.142;2023-08-24T06:12:56;11.03;;;10.27;;
2544;SDS011;36212;48.838;9.142;2023-08-24T06:15:28;10.90;;;10.00;;
2544;SDS011;36212;48.838;9.142;2023-08-24T06:18:01;12.23;;;11.30;;
2544;SDS011;36212;48.838;9.142;2023-08-24T06:20:33;11.87;;;10.73;;
2544;SDS011;36212;48.838;9.142;2023-08-24T06:23:05;10.13;;;9.30;;
2544;SDS011;36212;48.838;9.142;2023-08-24T06:25:39;10.17;;;9.43;;
2544;SDS011;36212;48.838;9.142;2023-08-24T06:28:11;9.57;;;8.77;;
2544;SDS011;36212;48.838;9.142;2023-08-24T06:30:44;9.97;;;9.07;;
2544;SDS011;36212;48.838;9.142;2023-08-24T06:33:18;10.60;;;8.90;;
2544;SDS011;36212;48.838;9.142;2023-08-24T06:35:50;8.80;;;8.10;;
2544;SDS011;36212;48.838;9.142;2023-08-24T06:38:22;8.23;;;7.53;;
2544;SDS011;36212;48.838;9.142;2023-08-24T06:40:55;8.80;;;8.20;;
2544;SDS011;36212;48.838;9.142;2023-08-24T06:43:28;8.23;;;7.53;;
2544;SDS011;36212;48.838;9.142;2023-08-24T06:46:01;8.80;;;8.10;;
2544;SDS011;36212;48.838;9.142;2023-08-24T06:48:34;8.77;;;8.10;;
2544;SDS011;36212;48.838;9.142;2023-08-24T06:51:07;9.47;;;8.47;;
2544;SDS011;36212;48.838;9.142;2023-08-24T06:53:40;8.83;;;8.10;;
2544;SDS011;36212;48.838;9.142;2023-08-24T06:56:14;9.13;;;8.33;;
2544;SDS011;36212;48.838;9.142;2023-08-24T06:58:52;11.13;;;10.20;;
2544;SDS011;36212;48.838;9.142;2023-08-24T07:01:24;10.90;;;9.90;;
2544;SDS011;36212;48.838;9.142;2023-08-24T07:03:57;10.97;;;10.13;;
2544;SDS011;36212;48.838;9.142;2023-08-24T07:06:29;11.53;;;10.47;;
2544;SDS011;36212;48.838;9.142;2023-08-24T07:09:04;11.20;;;10.40;;
2544;SDS011;36212;48.838;9.142;2023-08-24T07:11:39;10.47;;;9.77;;
2544;SDS011;36212;48.838;9.142;2023-08-24T07:14:11;11.50;;;10.37;;
2544;SDS011;36212;48.838;9.142;2023-08-24T07:16:43;11.13;;;10.23;;
2544;SDS011;36212;48.838;9.142;2023-08-24T07:19:15;10.97;;;9.87;;
2544;SDS011;36212;48.838;9.142;2023-08-24T07:21:48;10.53;;;9.63;;
2544;SDS011;36212;48.838;9.142;2023-08-24T07:24:20;9.70;;;9.00;;
2544;SDS011;36212;48.838;9.142;2023-08-24T07:27:15;10.17;;;9.37;;
2544;SDS011;36212;48.838;9.142;2023-08-24T07:29:48;10.40;;;9.57;;
2544;SDS011;36212;48.838;9.142;2023-08-24T07:32:21;19.93;;;9.90;;
2544;SDS011;36212;48.838;9.142;2023-08-24T07:34:57;11.00;;;9.07;;
2544;SDS011;36212;48.838;9.142;2023-08-24T07:37:31;10.63;;;9.60;;
2544;SDS011;36212;48.838;9.142;2023-08-24T07:40:03;10.03;;;9.30;;
2544;SDS011;36212;48.838;9.142;2023-08-24T07:42:45;9.40;;;8.50;;
2544;SDS011;36212;48.838;9.142;2023-08-24T07:45:28;9.23;;;8.43;;
2544;SDS011;36212;48.838;9.142;2023-08-24T07:48:01;9.30;;;7.70;;
2544;SDS011;36212;48.838;9.142;2023-08-24T07:50:36;8.53;;;7.83;;
2544;SDS011;36212;48.838;9.142;2023-08-24T07:53:08;7.67;;;7.07;;
2544;SDS011;36212;48.838;9.142;2023-08-24T07:55:40;6.80;;;6.40;;
2544;SDS011;36212;48.838;9.142;2023-08-24T07:58:14;8.47;;;7.10;;
2544;SDS011;36212;48.838;9.142;2023-08-24T08:00:48;8.70;;;7.00;;
2544;SDS011;36212;48.838;9.142;2023-08-24T08:03:22;8.27;;;6.70;;
2544;SDS011;36212;48.838;9.142;2023-08-24T08:05:55;6.53;;;6.03;;
2544;SDS011;36212;48.838;9.142;2023-08-24T08:08:28;6.40;;;5.67;;
2544;SDS011;36212;48.838;9.142;2023-08-24T08:11:01;7.03;;;5.93;;
2544;SDS011;36212;48.838;9.142;2023-08-24T08:13:34;5.53;;;5.13;;
2544;SDS011;36212;48.838;9.142;2023-08-24T08:16:06;6.67;;;6.17;;
2544;SDS011;36212;48.838;9.142;2023-08-24T08:18:39;5.97;;;5.50;;
2544;SDS011;36212;48.838;9.142;2023-08-24T08:21:15;5.60;;;5.20;;
2544;SDS011;36212;48.838;9.142;2023-08-24T08:23:53;6.30;;;4.93;;
2544;SDS011;36212;48.838;9.142;2023-08-24T08:26:25;6.87;;;4.80;;
2544;SDS011;36212;48.838;9.142;2023-08-24T08:28:59;5.37;;;4.67;;
2544;SDS011;36212;48.838;9.142;2023-08-24T08:31:31;5.17;;;4.77;;
2544;SDS011;36212;48.838;9.142;2023-08-24T08:34:04;4.83;;;4.47;;
2544;SDS011;36212;48.838;9.142;2023-08-24T08:36:36;4.63;;;4.23;;
2544;SDS011;36212;48.838;9.142;2023-08-24T08:39:08;4.33;;;3.93;;
2544;SDS011;36212;48.838;9.142;2023-08-24T08:41:42;5.43;;;5.00;;
2544;SDS011;36212;48.838;9.142;2023-08-24T08:44:16;5.53;;;5.03;;
2544;SDS011;36212;48.838;9.142;2023-08-24T08:46:51;4.93;;;4.43;;
2544;SDS011;36212;48.838;9.142;2023-08-24T08:49:24;4.70;;;4.40;;
2544;SDS011;36212;48.838;9.142;2023-08-24T08:52:00;4.60;;;4.30;;
2544;SDS011;36212;48.838;9.142;2023-08-24T08:54:34;5.10;;;4.30;;
2544;SDS011;36212;48.838;9.142;2023-08-24T08:57:10;7.47;;;4.60;;
2544;SDS011;36212;48.838;9.142;2023-08-24T08:59:46;6.37;;;4.80;;
2544;SDS011;36212;48.838;9.142;2023-08-24T09:02:22;5.40;;;5.00;;
2544;SDS011;36212;48.838;9.142;2023-08-24T09:04:58;6.10;;;4.90;;
2544;SDS011;36212;48.838;9.142;2023-08-24T09:07:32;9.00;;;4.90;;
2544;SDS011;36212;48.838;9.142;2023-08-24T09:10:09;5.60;;;5.10;;
2544;SDS011;36212;48.838;9.142;2023-08-24T09:12:42;5.90;;;5.13;;
2544;SDS011;36212;48.838;9.142;2023-08-24T09:15:25;6.50;;;5.13;;
2544;SDS011;36212;48.838;9.142;2023-08-24T09:18:07;5.30;;;5.00;;
2544;SDS011;36212;48.838;9.142;2023-08-24T09:20:40;5.17;;;4.77;;
2544;SDS011;36212;48.838;9.142;2023-08-24T09:23:19;5.10;;;4.80;;
2544;SDS011;36212;48.838;9.142;2023-08-24T09:25:52;5.90;;;5.37;;
2544;SDS011;36212;48.838;9.142;2023-08-24T09:28:25;5.43;;;4.97;;
2544;SDS011;36212;48.838;9.142;2023-08-24T09:30:59;5.23;;;4.73;;
2544;SDS011;36212;48.838;9.142;2023-08-24T09:33:34;4.97;;;4.40;;
2544;SDS011;36212;48.838;9.142;2023-08-24T09:36:13;5.07;;;4.47;;
2544;SDS011;36212;48.838;9.142;2023-08-24T09:38:47;5.40;;;5.10;;
2544;SDS011;36212;48.838;9.142;2023-08-24T09:41:45;5.40;;;4.90;;
2544;SDS011;36212;48.838;9.142;2023-08-24T09:44:21;8.53;;;4.80;;
2544;SDS011;36212;48.838;9.142;2023-08-24T09:46:54;6.33;;;5.57;;
2544;SDS011;36212;48.838;9.142;2023-08-24T09:49:28;5.40;;;4.90;;
2544;SDS011;36212;48.838;9.142;2023-08-24T09:52:02;5.40;;;5.00;;
2544;SDS011;36212;48.838;9.142;2023-08-24T09:54:39;5.23;;;4.93;;
2544;SDS011;36212;48.838;9.142;2023-08-24T09:57:15;5.50;;;5.10;;
2544;SDS011;36212;48.838;9.142;2023-08-24T09:59:49;7.73;;;5.20;;
2544;SDS011;36212;48.838;9.142;2023-08-24T10:02:26;5.50;;;5.10;;
2544;SDS011;36212;48.838;9.142;2023-08-24T10:05:06;5.87;;;5.27;;
2544;SDS011;36212;48.838;9.142;2023-08-24T10:08:01;7.03;;;5.37;;
2544;SDS011;36212;48.838;9.142;2023-08-24T10:10:39;6.13;;;5.77;;
2544;SDS011;36212;48.838;9.142;2023-08-24T10:13:20;5.93;;;5.53;;
2544;SDS011;36212;48.838;9.142;2023-08-24T10:16:28;5.30;;;4.90;;
2544;SDS011;36212;48.838;9.142;2023-08-24T10:19:03;5.77;;;5.20;;
2544;SDS011;36212;48.838;9.142;2023-08-24T10:21:37;5.33;;;4.93;;
2544;SDS011;36212;48.838;9.142;2023-08-24T10:24:11;6.07;;;5.77;;
2544;SDS011;36212;48.838;9.142;2023-08-24T10:26:45;5.60;;;5.17;;
2544;SDS011;36212;48.838;9.142;2023-08-24T10:29:18;5.57;;;5.07;;
2544;SDS011;36212;48.838;9.142;2023-08-24T10:31:53;7.07;;;5.60;;
2544;SDS011;36212;48.838;9.142;2023-08-24T10:34:27;5.73;;;5.27;;
2544;SDS011;36212;48.838;9.142;2023-08-24T10:37:10;5.93;;;5.40;;
2544;SDS011;36212;48.838;9.142;2023-08-24T10:39:44;9.13;;;5.73;;
2544;SDS011;36212;48.838;9.142;2023-08-24T10:42:18;5.57;;;5.07;;
2544;SDS011;36212;48.838;9.142;2023-08-24T10:44:53;8.00;;;5.57;;
2544;SDS011;36212;48.838;9.142;2023-08-24T10:47:26;6.23;;;5.73;;
2544;SDS011;36212;48.838;9.142;2023-08-24T10:50:14;6.37;;;5.90;;
2544;SDS011;36212;48.838;9.142;2023-08-24T10:52:47;5.93;;;5.53;;
2544;SDS011;36212;48.838;9.142;2023-08-24T10:55:27;6.93;;;6.33;;
2544;SDS011;36212;48.838;9.142;2023-08-24T10:58:00;5.73;;;5.40;;
2544;SDS011;36212;48.838;9.142;2023-08-24T11:00:47;5.67;;;5.27;;
2544;SDS011;36212;48.838;9.142;2023-08-24T11:03:30;6.63;;;6.13;;
2544;SDS011;36212;48.838;9.142;2023-08-24T11:06:17;5.77;;;5.37;;
2544;SDS011;36212;48.838;9.142;2023-08-24T11:09:05;5.80;;;5.50;;
2544;SDS011;36212;48.838;9.142;2023-08-24T11:11:55;6.43;;;5.83;;
2544;SDS011;36212;48.838;9.142;2023-08-24T11:14:36;6.70;;;5.93;;
2544;SDS011;36212;48.838;9.142;2023-08-24T11:17:29;6.47;;;5.70;;
2544;SDS011;36212;48.838;9.142;2023-08-24T11:20:05;6.00;;;5.50;;
2544;SDS011;36212;48.838;9.142;2023-08-24T11:22:40;5.80;;;5.30;;
2544;SDS011;36212;48.838;9.142;2023-08-24T11:25:15;5.97;;;5.43;;
2544;SDS011;36212;48.838;9.142;2023-08-24T11:27:50;6.30;;;5.90;;
2544;SDS011;36212;48.838;9.142;2023-08-24T11:30:23;6.30;;;5.60;;
2544;SDS011;36212;48.838;9.142;2023-08-24T11:32:59;6.13;;;5.73;;
2544;SDS011;36212;48.838;9.142;2023-08-24T11:35:37;6.37;;;5.77;;
2544;SDS011;36212;48.838;9.142;2023-08-24T11:38:16;6.70;;;6.20;;
2544;SDS011;36212;48.838;9.142;2023-08-24T11:40:55;6.13;;;5.73;;
2544;SDS011;36212;48.838;9.142;2023-08-24T11:43:28;5.90;;;5.50;;
2544;SDS011;36212;48.838;9.142;2023-08-24T11:46:01;5.97;;;5.47;;
2544;SDS011;36212;48.838;9.142;2023-08-24T11:48:39;6.57;;;5.90;;
2544;SDS011;36212;48.838;9.142;2023-08-24T11:51:14;6.10;;;5.80;;
2544;SDS011;36212;48.838;9.142;2023-08-24T11:54:05;6.83;;;6.23;;
2544;SDS011;36212;48.838;9.142;2023-08-24T11:56:42;7.67;;;7.00;;
2544;SDS011;36212;48.838;9.142;2023-08-24T11:59:18;6.53;;;6.00;;
2544;SDS011;36212;48.838;9.142;2023-08-24T12:01:53;6.47;;;5.97;;
2544;SDS011;36212;48.838;9.142;2023-08-24T12:04:27;6.23;;;5.83;;
2544;SDS011;36212;48.838;9.142;2023-08-24T12:07:13;7.40;;;6.60;;
2544;SDS011;36212;48.838;9.142;2023-08-24T12:09:48;7.10;;;6.37;;
2544;SDS011;36212;48.838;9.142;2023-08-24T12:12:26;7.27;;;6.67;;
2544;SDS011;36212;48.838;9.142;2023-08-24T12:15:00;6.77;;;6.13;;
2544;SDS011;36212;48.838;9.142;2023-08-24T12:17:43;7.70;;;6.13;;
2544;SDS011;36212;48.838;9.142;2023-08-24T12:20:19;7.13;;;6.63;;
2544;SDS011;36212;48.838;9.142;2023-08-24T12:22:56;6.80;;;6.20;;
2544;SDS011;36212;48.838;9.142;2023-08-24T12:25:35;6.90;;;6.40;;
2544;SDS011;36212;48.838;9.142;2023-08-24T12:28:13;7.80;;;6.50;;
2544;SDS011;36212;48.838;9.142;2023-08-24T12:30:51;7.60;;;6.20;;
2544;SDS011;36212;48.838;9.142;2023-08-24T12:33:26;7.37;;;6.20;;
2544;SDS011;36212;48.838;9.142;2023-08-24T12:36:01;6.97;;;6.47;;
2544;SDS011;36212;48.838;9.142;2023-08-24T12:38:35;6.87;;;6.20;;
2544;SDS011;36212;48.838;9.142;2023-08-24T12:41:09;7.23;;;5.80;;
2544;SDS011;36212;48.838;9.142;2023-08-24T12:43:44;7.20;;;6.30;;
2544;SDS011;36212;48.838;9.142;2023-08-24T12:46:20;7.40;;;6.70;;
2544;SDS011;36212;48.838;9.142;2023-08-24T12:48:54;6.40;;;5.80;;
2544;SDS011;36212;48.838;9.142;2023-08-24T12:51:32;6.70;;;6.20;;
2544;SDS011;36212;48.838;9.142;2023-08-24T12:54:05;10.70;;;7.10;;
2544;SDS011;36212;48.838;9.142;2023-08-24T12:56:44;7.03;;;6.37;;
2544;SDS011;36212;48.838;9.142;2023-08-24T12:59:17;5.63;;;5.10;;
2544;SDS011;36212;48.838;9.142;2023-08-24T13:01:51;6.97;;;5.80;;
2544;SDS011;36212;48.838;9.142;2023-08-24T13:04:24;10.13;;;6.00;;
2544;SDS011;36212;48.838;9.142;2023-08-24T13:07:03;7.90;;;6.23;;
2544;SDS011;36212;48.838;9.142;2023-08-24T13:09:36;6.73;;;6.33;;
2544;SDS011;36212;48.838;9.142;2023-08-24T13:12:10;7.13;;;5.83;;
2544;SDS011;36212;48.838;9.142;2023-08-24T13:14:44;6.27;;;5.63;;
2544;SDS011;36212;48.838;9.142;2023-08-24T13:17:19;6.10;;;5.50;;
2544;SDS011;36212;48.838;9.142;2023-08-24T13:19:52;9.00;;;5.77;;
2544;SDS011;36212;48.838;9.142;2023-08-24T13:22:26;6.77;;;6.17;;
2544;SDS011;36212;48.838;9.142;2023-08-24T13:25:01;6.53;;;5.90;;
2544;SDS011;36212;48.838;9.142;2023-08-24T13:27:34;8.47;;;5.57;;
2544;SDS011;36212;48.838;9.142;2023-08-24T13:30:07;7.70;;;6.20;;
2544;SDS011;36212;48.838;9.142;2023-08-24T13:32:41;11.30;;;5.50;;
2544;SDS011;36212;48.838;9.142;2023-08-24T13:35:15;7.30;;;6.00;;
2544;SDS011;36212;48.838;9.142;2023-08-24T13:37:49;6.03;;;5.57;;
2544;SDS011;36212;48.838;9.142;2023-08-24T13:40:23;8.27;;;5.57;;
2544;SDS011;36212;48.838;9.142;2023-08-24T13:42:57;6.80;;;5.63;;
2544;SDS011;36212;48.838;9.142;2023-08-24T13:45:30;7.20;;;5.87;;
2544;SDS011;36212;48.838;9.142;2023-08-24T13:48:04;9.80;;;6.17;;
2544;SDS011;36212;48.838;9.142;2023-08-24T13:50:41;7.03;;;6.20;;
2544;SDS011;36212;48.838;9.142;2023-08-24T13:53:21;11.73;;;5.73;;
2544;SDS011;36212;48.838;9.142;2023-08-24T13:55:54;10.97;;;6.23;;
2544;SDS011;36212;48.838;9.142;2023-08-24T13:58:28;5.93;;;5.40;;
2544;SDS011;36212;48.838;9.142;2023-08-24T14:01:04;7.40;;;5.27;;
2544;SDS011;36212;48.838;9.142;2023-08-24T14:03:39;6.50;;;5.73;;
2544;SDS011;36212;48.838;9.142;2023-08-24T14:06:15;10.17;;;5.83;;
2544;SDS011;36212;48.838;9.142;2023-08-24T14:08:49;6.60;;;5.50;;
2544;SDS011;36212;48.838;9.142;2023-08-24T14:11:23;6.10;;;5.50;;
2544;SDS011;36212;48.838;9.142;2023-08-24T14:13:58;6.13;;;5.63;;
2544;SDS011;36212;48.838;9.142;2023-08-24T14:16:31;6.23;;;5.63;;
2544;SDS011;36212;48.838;9.142;2023-08-24T14:19:04;6.10;;;5.50;;
2544;SDS011;36212;48.838;9.142;2023-08-24T14:21:36;6.93;;;5.30;;
2544;SDS011;36212;48.838;9.142;2023-08-24T14:24:16;8.40;;;5.23;;
2544;SDS011;36212;48.838;9.142;2023-08-24T14:26:48;9.50;;;5.70;;
2544;SDS011;36212;48.838;9.142;2023-08-24T14:29:21;8.07;;;6.00;;
2544;SDS011;36212;48.838;9.142;2023-08-24T14:31:53;6.67;;;5.70;;
2544;SDS011;36212;48.838;9.142;2023-08-24T14:34:26;7.00;;;5.90;;
2544;SDS011;36212;48.838;9.142;2023-08-24T14:36:58;6.97;;;5.30;;
2544;SDS011;36212;48.838;9.142;2023-08-24T14:39:30;14.63;;;5.90;;
2544;SDS011;36212;48.838;9.142;2023-08-24T14:42:02;6.03;;;5.43;;
2544;SDS011;36212;48.838;9.142;2023-08-24T14:44:37;6.67;;;5.43;;
2544;SDS011;36212;48.838;9.142;2023-08-24T14:47:09;13.90;;;6.20;;
2544;SDS011;36212;48.838;9.142;2023-08-24T14:49:41;13.53;;;6.17;;
2544;SDS011;36212;48.838;9.142;2023-08-24T14:52:14;7.30;;;5.77;;
2544;SDS011;36212;48.838;9.142;2023-08-24T14:54:46;8.30;;;5.20;;
2544;SDS011;36212;48.838;9.142;2023-08-24T14:57:20;29.67;;;7.40;;
2544;SDS011;36212;48.838;9.142;2023-08-24T15:00:27;22.30;;;6.83;;
2544;SDS011;36212;48.838;9.142;2023-08-24T15:03:18;8.90;;;5.20;;
2544;SDS011;36212;48.838;9.142;2023-08-24T15:06:12;7.47;;;4.70;;
2544;SDS011;36212;48.838;9.142;2023-08-24T15:08:54;6.63;;;3.87;;
2544;SDS011;36212;48.838;9.142;2023-08-24T15:11:29;10.17;;;4.90;;
2544;SDS011;36212;48.838;9.142;2023-08-24T15:14:02;5.40;;;4.90;;
2544;SDS011;36212;48.838;9.142;2023-08-24T15:16:34;5.30;;;4.80;;
2544;SDS011;36212;48.838;9.142;2023-08-24T15:19:11;6.23;;;4.60;;
2544;SDS011;36212;48.838;9.142;2023-08-24T15:21:46;6.00;;;5.43;;
2544;SDS011;36212;48.838;9.142;2023-08-24T15:24:24;8.60;;;6.00;;
2544;SDS011;36212;48.838;9.142;2023-08-24T15:27:05;6.40;;;4.47;;
2544;SDS011;36212;48.838;9.142;2023-08-24T15:30:05;7.57;;;4.23;;
2544;SDS011;36212;48.838;9.142;2023-08-24T15:33:08;3.90;;;3.70;;
2544;SDS011;36212;48.838;9.142;2023-08-24T15:36:32;3.67;;;3.10;;
2544;SDS011;36212;48.838;9.142;2023-08-24T15:39:37;4.47;;;3.40;;
2544;SDS011;36212;48.838;9.142;2023-08-24T15:42:54;3.60;;;3.07;;
2544;SDS011;36212;48.838;9.142;2023-08-24T15:46:23;3.00;;;2.80;;
2544;SDS011;36212;48.838;9.142;2023-08-24T15:53:17;3.20;;;2.50;;
2544;SDS011;36212;48.838;9.142;2023-08-24T15:57:03;3.00;;;2.50;;
2544;SDS011;36212;48.838;9.142;2023-08-24T16:00:40;6.33;;;3.40;;